createdAt,value
2023-12-29T05:06:30.630Z,99420.09
2023-12-29T05:16:59.205Z,99419.41
2023-12-29T05:27:28.096Z,99422.66
2023-12-29T05:37:55.959Z,99425.66
2023-12-29T05:48:25.362Z,99416.81
2023-12-29T05:58:47.380Z,99433.84
2023-12-29T06:09:15.252Z,99443.69
2023-12-29T06:19:43.368Z,99431.94
2023-12-29T06:30:12.307Z,99435.13
2023-12-29T06:40:41.344Z,99439.16
2023-12-29T06:51:11.127Z,99411.00
2023-12-29T07:01:42.622Z,99409.97
2023-12-29T07:12:11.895Z,99418.97
2023-12-29T07:22:39.295Z,99434.09
2023-12-29T07:33:07.847Z,99434.72
2023-12-29T07:43:37.082Z,99422.50
2023-12-29T07:54:04.651Z,99440.41
2023-12-29T08:04:32.784Z,99445.69
2023-12-29T08:15:01.830Z,99458.53
2023-12-29T08:25:30.299Z,99464.91
2023-12-29T08:36:01.821Z,99457.72
2023-12-29T08:46:30.760Z,99466.44
2023-12-29T08:56:52.444Z,99465.25
2023-12-29T09:07:13.954Z,99459.22
2023-12-29T09:17:36.028Z,99457.75
2023-12-29T09:27:57.734Z,99441.50
2023-12-29T09:38:27.732Z,99433.03
2023-12-29T09:48:53.925Z,99443.72
2023-12-29T09:59:17.595Z,99435.09
2023-12-29T10:09:42.006Z,99418.53
2023-12-29T10:20:32.548Z,99408.00
2023-12-29T10:31:01.016Z,99398.63
2023-12-29T10:41:28.914Z,99405.06
2023-12-29T10:51:57.067Z,99392.63
2023-12-29T11:02:19.465Z,99396.03
2023-12-29T11:12:41.223Z,99399.03
2023-12-29T11:23:05.383Z,99384.66
2023-12-29T11:33:42.995Z,99369.19
2023-12-29T11:44:05.291Z,99355.19
2023-12-29T11:54:28.492Z,99361.63
2023-12-29T12:04:51.416Z,99348.41
2023-12-29T12:15:29.525Z,99355.94
2023-12-29T12:26:01.168Z,99346.50
2023-12-29T12:36:29.163Z,99351.06
2023-12-29T12:47:00.769Z,99352.19
2023-12-29T12:57:28.758Z,99346.13
2023-12-29T13:07:59.490Z,99348.38
2023-12-29T13:18:32.825Z,99353.31
2023-12-29T13:29:02.430Z,99341.59
2023-12-29T13:40:24.571Z,99346.13
2023-12-29T13:50:49.114Z,99342.28
2023-12-29T14:01:11.986Z,99334.97
2023-12-29T14:11:49.338Z,99331.75
2023-12-29T14:22:24.535Z,99338.75
2023-12-29T14:32:53.341Z,99342.38
2023-12-29T14:43:20.908Z,99349.75
2023-12-29T14:53:51.078Z,99340.38
2023-12-29T15:04:18.939Z,99350.38
2023-12-29T15:14:40.945Z,99338.38
2023-12-29T15:25:09.419Z,99329.28
2023-12-29T15:35:38.322Z,99323.84
2023-12-29T15:46:17.852Z,99313.28
2023-12-29T15:56:45.988Z,99316.56
2023-12-29T16:07:14.307Z,99314.44
2023-12-29T16:17:42.366Z,99290.50
2023-12-29T16:28:03.665Z,99301.53
2023-12-29T16:38:32.222Z,99293.28
2023-12-29T16:49:03.740Z,99300.84
2023-12-29T16:59:31.361Z,99277.91
2023-12-29T17:09:59.288Z,99279.47
2023-12-29T17:20:27.723Z,99284.78
2023-12-29T17:30:55.894Z,99287.06
2023-12-29T17:41:24.840Z,99296.91
2023-12-29T17:51:47.545Z,99293.53
2023-12-29T18:02:16.348Z,99291.66
2023-12-29T18:12:44.661Z,99292.34
2023-12-29T18:23:08.478Z,99285.56
2023-12-29T18:33:39.645Z,99288.59
2023-12-29T18:44:02.716Z,99289.31
2023-12-29T18:54:33.624Z,99297.63
2023-12-29T19:04:57.064Z,99291.50
2023-12-29T19:15:25.003Z,99285.47
2023-12-29T19:25:52.449Z,99282.41
2023-12-29T19:36:21.902Z,99269.41
2023-12-29T19:46:44.101Z,99272.97
2023-12-29T19:57:06.676Z,99272.09
2023-12-29T20:07:35.275Z,99274.97
2023-12-29T20:18:02.856Z,99279.72
2023-12-29T20:28:25.746Z,99278.13
2023-12-29T20:38:55.959Z,99282.03
2023-12-29T20:49:24.952Z,99284.06
2023-12-29T20:59:52.982Z,99268.91
2023-12-29T21:10:21.791Z,99280.84
2023-12-29T21:20:52.742Z,99282.53
2023-12-29T21:31:21.298Z,99314.56
2023-12-29T21:41:49.377Z,99308.00
2023-12-29T21:52:17.268Z,99286.50
